Time;durP1;ratioP1;P1;durP2;ratioP2;P2;SDS_P1;SDS_P2;PMS_P1;PMS_P2;Temp;Humidity;BMP_temperature;BMP_pressure;BME280_temperature;BME280_humidity;BME280_pressure;Samples;Min_cycle;Max_cycle;Signal;HPM_P1;HPM_P2
2021/12/13 00:02:18;;;;;;;119.17;48.38;;;;;;;-1.62;100.00;99577.38;2178648;81;21008;-87
2021/12/13 00:05:20;;;;;;;107.40;43.10;;;;;;;-1.80;100.00;99568.91;2178739;82;21065;-88
2021/12/13 00:08:30;;;;;;;91.30;40.67;;;;;;;-1.81;100.00;99567.25;2178561;82;21108;-88
2021/12/13 00:11:31;;;;;;;104.30;43.63;;;;;;;-1.97;100.00;99552.27;2178160;82;21013;-88
2021/12/13 00:14:33;;;;;;;98.75;41.08;;;;;;;-2.15;100.00;99548.47;2178104;80;21120;-88
2021/12/13 00:17:34;;;;;;;132.85;48.25;;;;;;;-2.13;100.00;99561.20;2178345;82;21081;-88
2021/12/13 00:20:37;;;;;;;144.80;51.83;;;;;;;-2.04;100.00;99563.30;2181042;81;21053;-87
2021/12/13 00:23:37;;;;;;;130.30;49.85;;;;;;;-2.00;100.00;99573.80;2191898;81;21064;-87
2021/12/13 00:26:38;;;;;;;104.78;44.77;;;;;;;-2.05;100.00;99569.34;2192017;81;21083;-87
2021/12/13 00:29:39;;;;;;;116.37;48.48;;;;;;;-2.04;100.00;99569.72;2191873;81;20968;-87
2021/12/13 00:32:39;;;;;;;69.42;34.90;;;;;;;-2.13;100.00;99574.87;2192039;81;21599;-86
2021/12/13 00:35:40;;;;;;;93.55;41.25;;;;;;;-2.26;100.00;99574.30;2191976;81;20992;-88
2021/12/13 00:38:41;;;;;;;115.67;47.30;;;;;;;-2.26;100.00;99574.30;2192127;81;22119;-87
2021/12/13 00:41:42;;;;;;;122.00;50.88;;;;;;;-2.12;100.00;99577.80;2192202;81;21036;-87
2021/12/13 00:44:43;;;;;;;90.28;42.53;;;;;;;-2.09;100.00;99578.95;2192122;81;21060;-88
2021/12/13 00:47:44;;;;;;;88.92;41.18;;;;;;;-2.05;100.00;99582.18;2192159;81;20980;-87
2021/12/13 00:50:44;;;;;;;96.65;42.90;;;;;;;-2.06;100.00;99577.95;2192058;81;21072;-86
2021/12/13 00:53:46;;;;;;;94.85;40.83;;;;;;;-2.03;100.00;99578.62;2191998;81;21100;-88
2021/12/13 00:56:50;;;;;;;93.70;42.05;;;;;;;-2.00;100.00;99581.50;2191971;81;21004;-87
2021/12/13 00:59:50;;;;;;;93.58;40.12;;;;;;;-1.95;100.00;99575.66;2191372;81;21139;-87
2021/12/13 01:02:51;;;;;;;98.87;45.55;;;;;;;-1.92;100.00;99584.93;2192211;81;21024;-87
2021/12/13 01:05:52;;;;;;;89.07;41.75;;;;;;;-1.85;100.00;99581.97;2192076;81;21084;-86
2021/12/13 01:08:52;;;;;;;80.62;39.27;;;;;;;-1.80;100.00;99565.05;2191851;81;21016;-85
2021/12/13 01:11:53;;;;;;;86.47;39.90;;;;;;;-1.86;100.00;99562.80;2191851;81;21099;-87
2021/12/13 01:14:58;;;;;;;85.38;40.15;;;;;;;-1.88;100.00;99559.49;2191702;80;21075;-86
2021/12/13 01:18:04;;;;;;;97.47;41.10;;;;;;;-1.94;100.00;99546.97;2191452;81;21053;-88
2021/12/13 01:21:04;;;;;;;87.30;39.48;;;;;;;-1.89;100.00;99548.39;2190349;80;21523;-87
2021/12/13 01:24:06;;;;;;;91.50;38.80;;;;;;;-1.80;100.00;99556.89;2191349;81;21062;-87
2021/12/13 01:27:05;;;;;;;83.90;37.55;;;;;;;-1.81;100.00;99557.81;2191931;81;20979;-87
2021/12/13 01:30:05;;;;;;;93.17;39.00;;;;;;;-1.81;100.00;99560.38;2192138;81;20959;-86
2021/12/13 01:33:06;;;;;;;88.70;40.20;;;;;;;-1.84;100.00;99559.23;2191999;81;21034;-88
2021/12/13 01:36:07;;;;;;;93.45;39.60;;;;;;;-1.87;100.00;99568.84;2192062;81;20943;-88
2021/12/13 01:39:08;;;;;;;93.05;38.95;;;;;;;-1.84;100.00;99567.39;2191923;81;20979;-88
2021/12/13 01:42:09;;;;;;;93.15;39.95;;;;;;;-1.93;100.00;99568.70;2191987;81;20999;-86
2021/12/13 01:45:09;;;;;;;84.80;39.33;;;;;;;-1.88;100.00;99557.75;2191992;81;20975;-87
2021/12/13 01:48:10;;;;;;;88.72;37.93;;;;;;;-1.88;100.00;99568.02;2191932;81;21015;-88
2021/12/13 01:51:11;;;;;;;88.92;38.88;;;;;;;-1.90;100.00;99571.59;2192039;81;22090;-88
2021/12/13 01:54:13;;;;;;;87.65;37.90;;;;;;;-1.95;100.00;99570.52;2191973;81;21066;-87
2021/12/13 02:00:18;;;;;;;78.42;35.58;;;;;;;-1.87;100.00;99572.23;2191830;81;20990;-86
2021/12/13 02:03:19;;;;;;;95.15;39.83;;;;;;;-1.97;100.00;99581.33;2147022;83;21024;-87
2021/12/13 02:06:20;;;;;;;104.65;40.63;;;;;;;-1.89;100.00;99579.20;2103963;85;21025;-85
2021/12/13 02:09:21;;;;;;;108.32;42.78;;;;;;;-1.80;100.00;99574.87;2104007;84;20987;-85
2021/12/13 02:12:22;;;;;;;105.97;41.75;;;;;;;-1.79;100.00;99582.11;2103943;84;21078;-85
2021/12/13 02:18:42;;;;;;;91.65;40.20;;;;;;;-1.63;100.00;99580.86;2146942;83;21028;-86
2021/12/13 02:21:43;;;;;;;107.47;40.92;;;;;;;-1.65;100.00;99582.20;2117382;83;21064;-86
2021/12/13 02:24:44;;;;;;;97.70;42.67;;;;;;;-1.62;100.00;99576.92;2140417;83;21023;-86
2021/12/13 02:27:45;;;;;;;107.55;42.75;;;;;;;-1.54;100.00;99573.48;2140467;83;21086;-86
2021/12/13 02:30:46;;;;;;;92.80;38.13;;;;;;;-1.47;100.00;99566.25;2140405;83;21497;-85
2021/12/13 02:33:47;;;;;;;92.85;37.93;;;;;;;-1.38;100.00;99564.94;2140423;83;20986;-86
2021/12/13 02:36:48;;;;;;;83.47;34.83;;;;;;;-1.38;100.00;99568.33;2140393;83;21578;-85
2021/12/13 02:39:49;;;;;;;90.22;38.20;;;;;;;-1.62;100.00;99565.36;2140072;83;21048;-86
2021/12/13 02:42:50;;;;;;;85.05;35.92;;;;;;;-1.74;100.00;99575.84;2139979;83;21074;-86
2021/12/13 02:45:51;;;;;;;83.87;37.40;;;;;;;-1.84;100.00;99575.92;2139999;83;20948;-86
2021/12/13 02:48:51;;;;;;;74.32;34.78;;;;;;;-1.79;100.00;99571.84;2140113;83;21117;-86
2021/12/13 02:51:52;;;;;;;89.83;36.73;;;;;;;-1.85;100.00;99568.30;2140141;83;20980;-86
2021/12/13 02:54:53;;;;;;;88.62;35.70;;;;;;;-1.84;100.00;99569.50;2140135;83;20935;-87
2021/12/13 02:57:54;;;;;;;83.55;35.28;;;;;;;-1.76;100.00;99573.78;2140268;83;21001;-88
2021/12/13 03:00:55;;;;;;;83.82;36.30;;;;;;;-1.70;100.00;99571.81;2140309;83;20983;-86
2021/12/13 03:03:56;;;;;;;80.60;34.55;;;;;;;-1.64;100.00;99577.92;2140604;83;21057;-85
2021/12/13 03:06:56;;;;;;;79.07;33.98;;;;;;;-1.54;100.00;99565.78;2140556;83;21091;-87
2021/12/13 03:09:57;;;;;;;68.15;31.35;;;;;;;-1.43;100.00;99561.34;2140331;83;20947;-86
2021/12/13 03:12:58;;;;;;;77.78;33.90;;;;;;;-1.36;100.00;99565.24;2140397;83;21497;-86
2021/12/13 03:15:59;;;;;;;92.50;38.78;;;;;;;-1.51;100.00;99564.78;2140498;83;20995;-86
2021/12/13 03:19:00;;;;;;;84.65;37.23;;;;;;;-1.47;100.00;99564.52;2140461;83;21050;-86
2021/12/13 03:22:01;;;;;;;93.50;40.50;;;;;;;-1.37;100.00;99571.30;2130688;83;21096;-86
2021/12/13 03:25:02;;;;;;;96.70;41.95;;;;;;;-1.30;100.00;99585.45;2150749;82;21040;-87
2021/12/13 03:28:03;;;;;;;87.45;38.15;;;;;;;-1.37;100.00;99575.58;2169042;82;20959;-86
2021/12/13 03:31:03;;;;;;;80.25;37.25;;;;;;;-1.37;100.00;99570.44;2150191;83;21538;-85
2021/12/13 03:34:04;;;;;;;103.35;43.08;;;;;;;-1.38;100.00;99564.94;2168999;82;20983;-86
2021/12/13 03:37:05;;;;;;;93.67;41.08;;;;;;;-1.32;100.00;99558.19;2150368;83;21027;-84
2021/12/13 03:40:06;;;;;;;82.27;36.77;;;;;;;-1.31;100.00;99556.81;2168975;82;21499;-83
2021/12/13 03:43:07;;;;;;;75.00;34.80;;;;;;;-1.40;100.00;99551.34;2150094;83;21005;-85
2021/12/13 03:46:08;;;;;;;84.07;38.05;;;;;;;-1.49;100.00;99553.50;2168932;82;20968;-84
2021/12/13 03:49:09;;;;;;;75.25;35.03;;;;;;;-1.59;100.00;99565.19;2150153;83;20968;-84
2021/12/13 03:52:10;;;;;;;62.88;30.92;;;;;;;-1.62;100.00;99569.22;2168674;82;21062;-84
2021/12/13 03:55:11;;;;;;;43.52;23.67;;;;;;;-1.77;100.00;99568.73;2149820;83;21013;-86
2021/12/13 03:58:11;;;;;;;59.30;26.68;;;;;;;-1.90;100.00;99565.99;2168605;82;20995;-84
2021/12/13 04:01:12;;;;;;;59.45;27.65;;;;;;;-2.10;100.00;99580.32;2149913;83;20996;-85
2021/12/13 04:04:13;;;;;;;60.48;29.65;;;;;;;-2.23;100.00;99589.53;2168265;82;21030;-85
2021/12/13 04:07:14;;;;;;;70.35;33.30;;;;;;;-2.27;100.00;99572.65;2149621;83;21051;-82
2021/12/13 04:10:15;;;;;;;49.75;24.60;;;;;;;-2.36;100.00;99575.23;2168941;82;21493;-83
2021/12/13 04:13:15;;;;;;;57.93;28.57;;;;;;;-2.44;100.00;99584.58;2150143;83;21135;-82
2021/12/13 04:16:18;;;;;;;68.83;34.73;;;;;;;-2.48;100.00;99585.62;2169010;82;21507;-85
2021/12/13 04:19:19;;;;;;;53.95;28.83;;;;;;;-2.47;100.00;99591.58;2150220;83;21492;-81
2021/12/13 04:22:20;;;;;;;57.00;28.47;;;;;;;-2.43;100.00;99591.36;2169127;82;20999;-80
2021/12/13 04:25:21;;;;;;;65.20;31.77;;;;;;;-2.43;100.00;99591.36;2157318;81;21004;-83
2021/12/13 04:28:21;;;;;;;67.97;32.48;;;;;;;-2.46;100.00;99603.07;2201321;80;20951;-82
2021/12/13 04:31:22;;;;;;;66.67;31.45;;;;;;;-2.38;100.00;99593.69;2201334;80;20970;-84
2021/12/13 04:34:23;;;;;;;60.95;31.00;;;;;;;-2.25;100.00;99583.66;2201298;81;21002;-82
2021/12/13 04:37:24;;;;;;;72.75;32.17;;;;;;;-2.13;100.00;99586.42;2201196;80;20970;-82
2021/12/13 04:40:25;;;;;;;75.35;31.42;;;;;;;-2.04;100.00;99578.70;2201311;81;20974;-82
2021/12/13 04:43:26;;;;;;;71.30;33.45;;;;;;;-1.98;100.00;99576.28;2161994;82;21526;-82
2021/12/13 04:46:27;;;;;;;70.97;35.00;;;;;;;-1.88;100.00;99571.05;2201341;81;21440;-82
2021/12/13 04:49:28;;;;;;;69.55;32.38;;;;;;;-1.80;100.00;99576.61;2201347;81;21485;-81
2021/12/13 04:52:28;;;;;;;75.97;34.15;;;;;;;-1.71;100.00;99578.69;2201293;81;21011;-82
2021/12/13 04:55:29;;;;;;;78.72;33.28;;;;;;;-1.61;100.00;99577.28;2201105;81;21335;-82
2021/12/13 04:58:30;;;;;;;61.75;30.08;;;;;;;-1.57;100.00;99574.09;2201256;81;20981;-81
2021/12/13 05:01:31;;;;;;;66.37;30.05;;;;;;;-1.57;100.00;99574.09;2201233;81;20931;-82
2021/12/13 05:04:32;;;;;;;62.10;31.12;;;;;;;-1.54;100.00;99571.38;2201307;81;20939;-81
2021/12/13 05:07:33;;;;;;;61.95;31.35;;;;;;;-1.55;100.00;99577.42;2201337;81;20927;-82
2021/12/13 05:10:34;;;;;;;77.65;33.90;;;;;;;-1.48;100.00;99572.31;2201187;81;20967;-80
2021/12/13 05:13:34;;;;;;;66.80;29.63;;;;;;;-1.49;100.00;99576.63;2201195;81;21554;-82
2021/12/13 05:16:35;;;;;;;66.70;29.35;;;;;;;-1.64;100.00;99579.20;2201314;81;21276;-83
2021/12/13 05:19:36;;;;;;;68.50;30.27;;;;;;;-1.76;100.00;99576.35;2201335;81;20974;-83
2021/12/13 05:22:37;;;;;;;64.22;30.52;;;;;;;-1.72;100.00;99576.58;2201317;81;20978;-83
2021/12/13 05:25:38;;;;;;;57.48;27.75;;;;;;;-1.67;100.00;99584.02;2154798;82;21056;-81
2021/12/13 05:28:39;;;;;;;52.50;24.15;;;;;;;-1.83;100.00;99593.01;2169001;82;20960;-85
2021/12/13 05:31:39;;;;;;;48.73;23.73;;;;;;;-2.01;100.00;99593.51;2150642;83;21090;-85
2021/12/13 05:34:40;;;;;;;49.18;23.73;;;;;;;-2.12;100.00;99597.51;2168838;82;20948;-83
2021/12/13 05:37:41;;;;;;;43.63;22.13;;;;;;;-2.26;100.00;99594.38;2149875;83;22109;-85
2021/12/13 05:40:42;;;;;;;48.95;22.42;;;;;;;-2.37;100.00;99597.48;2168839;82;20963;-84
2021/12/13 05:43:43;;;;;;;67.65;30.23;;;;;;;-2.49;100.00;99604.48;2149981;83;21023;-84
2021/12/13 05:46:44;;;;;;;72.17;32.40;;;;;;;-2.50;100.00;99609.69;2168924;82;21031;-84
2021/12/13 05:49:45;;;;;;;55.65;26.40;;;;;;;-2.45;100.00;99604.73;2150346;83;20981;-86
2021/12/13 05:52:46;;;;;;;79.65;34.88;;;;;;;-2.46;100.00;99611.22;2169410;82;20991;-84
2021/12/13 05:55:47;;;;;;;63.35;29.60;;;;;;;-2.44;100.00;99614.53;2150530;83;21072;-86
2021/12/13 05:58:48;;;;;;;68.50;31.25;;;;;;;-2.32;100.00;99619.05;2169219;82;20979;-85
2021/12/13 06:01:48;;;;;;;64.97;29.52;;;;;;;-2.26;100.00;99614.07;2149860;83;21604;-84
2021/12/13 06:04:49;;;;;;;65.47;30.25;;;;;;;-2.18;100.00;99612.78;2169039;82;21301;-84
2021/12/13 06:07:50;;;;;;;78.20;34.53;;;;;;;-2.10;100.00;99606.81;2150285;83;21023;-84
2021/12/13 06:10:51;;;;;;;78.15;38.85;;;;;;;-2.04;100.00;99601.34;2169022;82;20953;-84
2021/12/13 06:13:52;;;;;;;82.40;39.23;;;;;;;-2.00;100.00;99604.60;2149809;83;21080;-83
2021/12/13 06:16:54;;;;;;;90.30;40.28;;;;;;;-1.92;100.00;99605.47;2168614;82;21653;-83
2021/12/13 06:19:55;;;;;;;76.60;39.10;;;;;;;-1.83;100.00;99619.97;2149890;83;20964;-84
2021/12/13 06:22:56;;;;;;;88.17;40.17;;;;;;;-1.79;100.00;99618.89;2169053;82;21011;-83
2021/12/13 06:25:57;;;;;;;81.80;37.40;;;;;;;-1.71;100.00;99622.34;2149990;83;21005;-84
2021/12/13 06:28:57;;;;;;;91.20;40.58;;;;;;;-1.70;100.00;99625.74;2169091;82;21321;-84
2021/12/13 06:31:58;;;;;;;73.87;35.40;;;;;;;-1.67;100.00;99630.70;2149990;83;20989;-84
2021/12/13 06:34:59;;;;;;;48.20;23.95;;;;;;;-1.62;100.00;99635.98;2168941;82;20979;-85
2021/12/13 06:38:00;;;;;;;67.05;28.10;;;;;;;-1.81;100.00;99644.27;2150029;83;21047;-86
2021/12/13 06:41:01;;;;;;;68.67;32.50;;;;;;;-2.04;100.00;99641.13;2168919;82;20917;-85
2021/12/13 06:44:02;;;;;;;79.15;35.78;;;;;;;-2.14;100.00;99647.63;2150146;83;21003;-85
2021/12/13 06:47:02;;;;;;;71.62;33.02;;;;;;;-2.10;100.00;99655.57;2168985;82;20925;-86
2021/12/13 06:50:03;;;;;;;88.82;37.60;;;;;;;-1.93;100.00;99650.84;2149948;83;21075;-84
2021/12/13 06:53:04;;;;;;;78.15;37.40;;;;;;;-1.93;100.00;99650.84;2169124;82;21537;-86
2021/12/13 06:56:05;;;;;;;65.83;32.40;;;;;;;-1.89;100.00;99652.37;2150162;83;20977;-86
2021/12/13 06:59:06;;;;;;;78.72;35.00;;;;;;;-1.91;100.00;99660.61;2169100;82;20983;-85
2021/12/13 07:02:07;;;;;;;75.17;34.73;;;;;;;-2.04;100.00;99663.39;2150120;83;21076;-85
2021/12/13 07:05:08;;;;;;;85.17;37.33;;;;;;;-2.21;100.00;99665.97;2168968;82;21531;-84
2021/12/13 07:08:09;;;;;;;90.15;41.05;;;;;;;-2.11;100.00;99668.45;2150082;83;20945;-86
2021/12/13 07:11:12;;;;;;;86.92;40.80;;;;;;;-2.02;100.00;99671.39;2168961;82;21059;-85
2021/12/13 07:14:14;;;;;;;94.72;45.80;;;;;;;-1.91;100.00;99665.73;2150177;83;21132;-86
2021/12/13 07:17:15;;;;;;;89.40;44.27;;;;;;;-1.80;100.00;99675.45;2169118;82;21064;-85
2021/12/13 07:20:15;;;;;;;100.10;45.88;;;;;;;-1.68;100.00;99673.53;2150367;83;21087;-85
2021/12/13 07:23:16;;;;;;;83.60;40.05;;;;;;;-1.69;100.00;99668.48;2169126;82;21035;-85
2021/12/13 07:26:17;;;;;;;88.65;41.85;;;;;;;-1.60;100.00;99670.58;2151067;81;21005;-86
2021/12/13 07:29:18;;;;;;;91.63;42.38;;;;;;;-1.63;100.00;99678.45;2180745;82;20979;-84
2021/12/13 07:32:19;;;;;;;89.35;43.63;;;;;;;-1.73;100.00;99681.95;2180157;82;20975;-84
2021/12/13 07:35:20;;;;;;;97.90;44.88;;;;;;;-1.64;100.00;99688.35;2180406;82;20967;-83
2021/12/13 07:38:21;;;;;;;98.90;44.42;;;;;;;-1.51;100.00;99680.37;2151479;83;21480;-85
2021/12/13 07:41:22;;;;;;;95.80;45.67;;;;;;;-1.46;100.00;99693.37;2180660;81;21038;-84
2021/12/13 07:44:23;;;;;;;95.22;42.15;;;;;;;-1.40;100.00;99692.20;2180293;81;20963;-85
2021/12/13 07:47:24;;;;;;;83.52;37.15;;;;;;;-1.26;100.00;99692.77;2180329;82;21059;-83
2021/12/13 07:50:24;;;;;;;91.30;39.78;;;;;;;-1.10;100.00;99699.19;2151744;83;20996;-84
2021/12/13 07:53:26;;;;;;;80.97;36.53;;;;;;;-1.10;100.00;99701.77;2180554;82;21359;-85
2021/12/13 07:56:27;;;;;;;82.20;34.48;;;;;;;-1.12;100.00;99709.56;2180714;82;20988;-85
2021/12/13 07:59:27;;;;;;;75.52;33.02;;;;;;;-1.11;100.00;99702.67;2180677;82;20978;-83
2021/12/13 08:02:30;;;;;;;81.50;36.25;;;;;;;-1.04;100.00;99698.88;2180581;82;20943;-85
2021/12/13 08:05:31;;;;;;;83.17;36.68;;;;;;;-1.03;100.00;99701.81;2180642;82;21575;-85
2021/12/13 08:08:34;;;;;;;96.08;39.63;;;;;;;-1.02;100.00;99708.61;2180400;82;20952;-84
2021/12/13 08:11:34;;;;;;;96.47;40.28;;;;;;;-1.00;100.00;99702.95;2180857;81;21087;-84
2021/12/13 08:14:36;;;;;;;96.75;41.73;;;;;;;-0.78;100.00;99711.16;2181499;82;20976;-84
2021/12/13 08:17:37;;;;;;;91.92;39.27;;;;;;;-0.78;100.00;99711.16;2180653;82;20940;-85
2021/12/13 08:20:38;;;;;;;98.60;38.67;;;;;;;-0.72;100.00;99719.00;2180600;82;20987;-85
2021/12/13 08:23:38;;;;;;;91.75;40.63;;;;;;;-0.66;100.00;99714.33;2151627;83;21048;-85
2021/12/13 08:26:39;;;;;;;84.55;39.67;;;;;;;-0.51;100.00;99725.53;2168135;82;21557;-86
2021/12/13 08:29:40;;;;;;;94.80;40.10;;;;;;;-0.44;100.00;99726.85;2166401;82;20997;-85
2021/12/13 08:32:41;;;;;;;96.92;41.63;;;;;;;-0.42;100.00;99727.59;2132047;83;21044;-85
2021/12/13 08:35:42;;;;;;;194.80;69.47;;;;;;;-0.37;100.00;99737.61;2118407;84;21097;-85
2021/12/13 08:38:43;;;;;;;234.35;86.85;;;;;;;-0.40;100.00;99730.08;2118247;84;21012;-84
2021/12/13 08:41:44;;;;;;;140.60;56.83;;;;;;;-0.38;100.00;99733.38;2118741;84;21005;-85
2021/12/13 08:44:45;;;;;;;107.43;46.77;;;;;;;-0.36;100.00;99732.86;2118222;84;20915;-85
2021/12/13 08:47:45;;;;;;;97.00;42.67;;;;;;;-0.33;100.00;99737.83;2118419;84;21586;-85
2021/12/13 08:50:46;;;;;;;83.25;38.88;;;;;;;-0.21;100.00;99729.41;2118080;84;20983;-83
2021/12/13 08:53:47;;;;;;;89.95;43.30;;;;;;;-0.21;100.00;99730.70;2118228;84;20962;-85
2021/12/13 08:56:48;;;;;;;76.60;39.42;;;;;;;-0.24;100.00;99730.88;2118989;84;21057;-85
2021/12/13 08:59:49;;;;;;;74.37;37.83;;;;;;;-0.24;100.00;99730.05;2118348;84;21464;-85
2021/12/13 09:02:50;;;;;;;80.35;39.55;;;;;;;-0.43;100.00;99731.08;2118446;84;21005;-85
2021/12/13 09:05:51;;;;;;;90.92;39.20;;;;;;;-0.52;100.00;99726.91;2118169;84;21058;-86
2021/12/13 09:08:52;;;;;;;69.77;35.65;;;;;;;-0.38;100.00;99735.95;2118340;84;21568;-85
2021/12/13 09:11:56;;;;;;;73.57;35.05;;;;;;;-0.33;100.00;99732.69;2118280;84;21009;-85
2021/12/13 09:14:57;;;;;;;63.63;32.78;;;;;;;-0.38;100.00;99732.09;2117866;84;21049;-85
2021/12/13 09:17:58;;;;;;;75.42;37.67;;;;;;;-0.51;100.00;99727.27;2118268;84;21101;-83
2021/12/13 09:20:59;;;;;;;74.25;36.58;;;;;;;-0.58;100.00;99719.88;2118817;84;20954;-84
2021/12/13 09:24:00;;;;;;;75.72;39.15;;;;;;;-0.61;100.00;99723.09;2118405;84;21049;-83
2021/12/13 09:27:01;;;;;;;87.45;38.38;;;;;;;-0.68;100.00;99722.59;2140040;81;20990;-84
2021/12/13 09:30:02;;;;;;;77.22;36.83;;;;;;;-0.73;100.00;99719.89;2149971;83;21063;-83
2021/12/13 09:33:03;;;;;;;79.97;42.25;;;;;;;-0.83;100.00;99713.13;2149895;83;21074;-83
2021/12/13 09:36:04;;;;;;;88.33;45.17;;;;;;;-0.89;100.00;99713.48;2149762;83;21037;-85
2021/12/13 09:39:06;;;;;;;67.03;35.90;;;;;;;-0.70;100.00;99701.73;2149651;83;20995;-85
2021/12/13 09:42:07;;;;;;;58.40;31.85;;;;;;;-0.70;100.00;99701.73;2149636;83;22149;-85
2021/12/13 09:45:09;;;;;;;73.40;37.08;;;;;;;-0.69;100.00;99708.08;2149832;83;21061;-85
2021/12/13 09:48:10;;;;;;;65.00;33.35;;;;;;;-0.80;100.00;99712.98;2149804;83;20951;-85
2021/12/13 09:51:13;;;;;;;71.80;36.25;;;;;;;-0.59;100.00;99718.69;2149918;83;20975;-86
2021/12/13 09:54:16;;;;;;;76.45;36.95;;;;;;;-0.57;100.00;99716.39;2149473;83;21057;-86
2021/12/13 09:57:20;;;;;;;77.35;39.13;;;;;;;-0.44;100.00;99713.16;2149739;83;21450;-85
2021/12/13 10:00:21;;;;;;;84.97;40.12;;;;;;;-0.42;100.00;99706.17;2149434;83;20955;-85
2021/12/13 10:03:24;;;;;;;90.35;41.18;;;;;;;-0.38;100.00;99703.79;2149411;83;21081;-84
2021/12/13 10:06:25;;;;;;;85.40;42.10;;;;;;;-0.13;100.00;99701.48;2149438;83;20991;-84
2021/12/13 10:09:26;;;;;;;84.75;43.83;;;;;;;0.04;100.00;99706.13;2149417;83;21070;-83
2021/12/13 10:12:30;;;;;;;99.47;43.87;;;;;;;0.13;100.00;99706.88;2149346;83;21031;-85
2021/12/13 10:18:35;;;;;;;93.27;45.58;;;;;;;-0.02;100.00;99711.17;2031954;87;21055;-85
2021/12/13 10:21:36;;;;;;;87.35;45.33;;;;;;;-0.14;100.00;99719.60;2040376;87;21549;-85
2021/12/13 10:24:37;;;;;;;101.75;48.23;;;;;;;-0.09;100.00;99716.29;2040180;87;21044;-85
2021/12/13 10:27:38;;;;;;;91.82;46.25;;;;;;;-0.06;100.00;99716.96;2036760;86;21099;-84
2021/12/13 10:30:39;;;;;;;108.42;49.67;;;;;;;-0.07;100.00;99703.72;2045340;87;20999;-84
2021/12/13 10:33:39;;;;;;;99.25;49.73;;;;;;;-0.14;100.00;99707.56;2065032;86;21347;-86
2021/12/13 10:39:43;;;;;;;101.33;49.60;;;;;;;-0.05;100.00;99707.48;2014541;88;21330;-85
2021/12/13 10:42:44;;;;;;;96.60;49.08;;;;;;;0.04;100.00;99697.95;1979428;90;21178;-84
2021/12/13 10:45:45;;;;;;;90.32;43.73;;;;;;;0.13;100.00;99693.55;2003883;89;20996;-85
2021/12/13 10:48:46;;;;;;;103.17;48.65;;;;;;;0.19;100.00;99702.67;1979339;90;21104;-85
2021/12/13 10:51:54;;;;;;;105.17;53.80;;;;;;;0.12;100.00;99703.95;2003828;89;21016;-85
2021/12/13 10:54:51;;;;;;;87.00;48.02;;;;;;;0.00;100.00;99704.20;2003004;89;21079;-85
2021/12/13 10:57:52;;;;;;;98.90;52.27;;;;;;;-0.01;100.00;99709.78;1979594;90;21135;-82
2021/12/13 11:00:53;;;;;;;111.32;49.15;;;;;;;-0.04;100.00;99709.97;2003771;89;21036;-83
2021/12/13 11:03:53;;;;;;;99.50;48.85;;;;;;;-0.02;100.00;99717.14;1979457;90;21385;-84
2021/12/13 11:06:54;;;;;;;105.92;53.52;;;;;;;-0.05;100.00;99710.89;2003810;89;21063;-84
2021/12/13 11:09:55;;;;;;;99.20;48.45;;;;;;;-0.12;100.00;99705.72;1979516;90;21496;-83
2021/12/13 11:12:56;;;;;;;102.60;52.60;;;;;;;-0.12;100.00;99704.89;2003860;89;21066;-83
2021/12/13 11:15:57;;;;;;;106.17;53.23;;;;;;;-0.13;100.00;99697.63;1998592;89;21467;-84
2021/12/13 11:18:58;;;;;;;90.92;46.25;;;;;;;-0.14;100.00;99705.44;2009025;89;21063;-83
2021/12/13 11:22:02;;;;;;;103.00;51.18;;;;;;;-0.17;100.00;99698.73;2009287;89;21622;-84
2021/12/13 11:25:02;;;;;;;89.58;48.40;;;;;;;-0.18;100.00;99693.22;2008827;89;21148;-84
2021/12/13 11:28:03;;;;;;;112.97;58.35;;;;;;;-0.14;100.00;99698.55;1999991;87;21093;-84
2021/12/13 11:31:04;;;;;;;100.85;54.03;;;;;;;-0.10;100.00;99697.44;1998872;89;21061;-85
2021/12/13 11:34:05;;;;;;;111.90;57.50;;;;;;;-0.05;100.00;99692.87;1998713;89;21077;-85
2021/12/13 11:37:07;;;;;;;109.30;55.63;;;;;;;0.01;100.00;99690.41;2065110;85;21012;-84
2021/12/13 11:40:08;;;;;;;106.65;57.13;;;;;;;-0.07;100.00;99696.45;2150541;83;21571;-84
2021/12/13 11:43:09;;;;;;;101.18;53.45;;;;;;;-0.03;100.00;99693.60;2122105;84;20973;-84
2021/12/13 11:46:10;;;;;;;121.47;61.85;;;;;;;-0.08;100.00;99692.23;2122131;84;21636;-84
2021/12/13 11:49:11;;;;;;;121.22;62.53;;;;;;;-0.11;100.00;99689.81;2122083;84;20982;-84
2021/12/13 11:52:12;;;;;;;122.02;64.97;;;;;;;0.01;100.00;99694.73;2122059;84;21049;-82
2021/12/13 11:55:13;;;;;;;125.38;63.63;;;;;;;0.02;100.00;99688.66;2121961;84;21518;-85
2021/12/13 11:58:13;;;;;;;133.82;68.97;;;;;;;0.05;100.00;99687.19;2122540;84;21060;-84
2021/12/13 12:01:15;;;;;;;129.75;67.45;;;;;;;0.03;100.00;99687.73;2121963;84;21006;-84
2021/12/13 12:04:15;;;;;;;147.93;75.28;;;;;;;0.14;100.00;99687.94;2122083;84;21069;-85
2021/12/13 12:07:16;;;;;;;150.95;75.57;;;;;;;0.21;100.00;99685.38;2121920;84;21030;-82
2021/12/13 12:10:19;;;;;;;150.47;75.25;;;;;;;0.32;100.00;99679.13;2121871;84;21039;-85
2021/12/13 12:13:26;;;;;;;149.47;75.30;;;;;;;0.38;100.00;99678.77;2121528;84;21141;-85
2021/12/13 12:16:22;;;;;;;155.52;79.37;;;;;;;0.45;100.00;99677.45;2120628;82;21093;-85
2021/12/13 12:19:34;;;;;;;162.25;83.15;;;;;;;0.48;100.00;99667.45;2120161;84;21541;-83
2021/12/13 12:22:35;;;;;;;160.78;80.25;;;;;;;0.49;100.00;99673.79;2121369;84;20995;-85
2021/12/13 12:25:36;;;;;;;150.53;81.82;;;;;;;0.52;100.00;99670.19;2121730;84;21101;-83
2021/12/13 12:28:36;;;;;;;159.43;82.00;;;;;;;0.48;100.00;99671.31;2149135;81;21029;-85
2021/12/13 12:31:37;;;;;;;181.43;97.37;;;;;;;0.45;100.00;99671.02;2168878;82;21067;-86
2021/12/13 12:34:38;;;;;;;246.40;128.12;;;;;;;0.42;100.00;99670.38;2150131;83;21012;-84
2021/12/13 12:37:40;;;;;;;229.45;116.85;;;;;;;0.32;100.00;99677.83;2169092;82;20928;-84
2021/12/13 12:40:41;;;;;;;219.15;108.65;;;;;;;0.23;100.00;99669.36;2149991;83;21049;-84
2021/12/13 12:43:42;;;;;;;183.22;89.80;;;;;;;0.21;100.00;99679.77;2168984;82;21003;-86
2021/12/13 12:46:42;;;;;;;199.57;99.37;;;;;;;0.21;100.00;99669.46;2150072;83;21038;-85
2021/12/13 12:49:43;;;;;;;185.55;90.12;;;;;;;0.18;100.00;99678.66;2168699;82;21304;-84
2021/12/13 12:52:44;;;;;;;270.97;131.82;;;;;;;0.18;100.00;99672.23;2149599;83;21028;-85
2021/12/13 12:55:45;;;;;;;188.85;89.15;;;;;;;0.20;100.00;99672.95;2168472;82;20948;-84
2021/12/13 12:58:46;;;;;;;139.90;70.45;;;;;;;0.18;100.00;99682.95;2149647;83;21564;-84
2021/12/13 13:01:47;;;;;;;157.30;78.42;;;;;;;0.15;100.00;99687.84;2168956;82;20917;-83
2021/12/13 13:04:50;;;;;;;163.82;79.95;;;;;;;0.21;100.00;99688.78;2149923;83;21072;-82
2021/12/13 13:07:51;;;;;;;160.37;83.20;;;;;;;0.22;100.00;99690.89;2168919;82;21060;-82
2021/12/13 13:10:52;;;;;;;158.68;80.40;;;;;;;0.18;100.00;99694.55;2150593;83;21091;-83
2021/12/13 13:13:52;;;;;;;156.00;78.10;;;;;;;0.16;100.00;99696.39;2168905;82;20951;-83
2021/12/13 13:16:53;;;;;;;95.12;47.78;;;;;;;0.07;100.00;99695.64;2150032;83;21047;-83
2021/12/13 13:19:55;;;;;;;85.35;45.92;;;;;;;-0.04;100.00;99706.11;2168506;82;21075;-83
2021/12/13 13:22:56;;;;;;;100.58;52.90;;;;;;;-0.14;100.00;99702.41;2150058;83;21048;-84
2021/12/13 13:25:57;;;;;;;100.12;50.05;;;;;;;-0.29;100.00;99709.70;2168892;82;20956;-83
2021/12/13 13:28:57;;;;;;;100.47;48.98;;;;;;;-0.43;100.00;99702.78;2158354;82;21047;-85
2021/12/13 13:32:00;;;;;;;107.30;51.02;;;;;;;-0.51;100.00;99702.83;2187462;81;20990;-84
2021/12/13 13:35:01;;;;;;;98.10;51.77;;;;;;;-0.60;100.00;99697.73;2187544;81;20978;-84
2021/12/13 13:38:02;;;;;;;104.43;51.50;;;;;;;-0.63;100.00;99701.31;2187617;81;21494;-84
2021/12/13 13:41:03;;;;;;;119.80;59.80;;;;;;;-0.66;100.00;99709.64;2187603;81;21257;-84
2021/12/13 13:44:04;;;;;;;115.75;55.92;;;;;;;-0.77;100.00;99707.66;2158615;82;21031;-84
2021/12/13 13:47:04;;;;;;;126.92;60.50;;;;;;;-0.82;100.00;99706.24;2187499;81;20944;-85
2021/12/13 13:50:05;;;;;;;103.47;50.67;;;;;;;-0.87;100.00;99710.36;2187531;81;20992;-85
2021/12/13 13:53:06;;;;;;;120.10;57.60;;;;;;;-0.93;100.00;99717.11;2187279;81;21057;-84